createdAt,value
2019-04-14T00:01:30.634Z,65.10
2019-04-14T00:04:07.295Z,64.33
2019-04-14T00:06:37.647Z,65.69
2019-04-14T00:09:09.596Z,66.87
2019-04-14T00:11:45.928Z,66.80
2019-04-14T00:14:14.686Z,65.85
2019-04-14T00:16:44.515Z,65.75
2019-04-14T00:19:13.284Z,65.53
2019-04-14T00:21:43.194Z,65.62
2019-04-14T00:24:12.207Z,65.32
2019-04-14T00:26:40.827Z,65.31
2019-04-14T00:29:09.407Z,65.72
2019-04-14T00:31:41.205Z,68.50
2019-04-14T00:34:15.917Z,65.40
2019-04-14T00:36:46.234Z,65.55
2019-04-14T00:39:20.502Z,65.21
2019-04-14T00:42:02.147Z,65.14
2019-04-14T00:44:41.017Z,64.63
2019-04-14T00:47:15.659Z,64.92
2019-04-14T00:49:44.390Z,65.50
2019-04-14T00:52:13.038Z,65.84
2019-04-14T00:54:41.682Z,66.07
2019-04-14T00:57:11.338Z,66.08
2019-04-14T00:59:40.112Z,65.38
2019-04-14T01:02:09.824Z,65.30
2019-04-14T01:04:38.477Z,64.95
2019-04-14T01:07:07.020Z,65.94
2019-04-14T01:09:35.496Z,64.44
2019-04-14T01:12:04.110Z,63.22
2019-04-14T01:14:32.676Z,64.29
2019-04-14T01:17:02.629Z,64.00
2019-04-14T01:19:31.376Z,64.52
2019-04-14T01:22:01.039Z,64.61
2019-04-14T01:24:29.609Z,65.44
2019-04-14T01:26:59.451Z,66.69
2019-04-14T01:29:28.211Z,66.20
2019-04-14T01:31:57.852Z,66.38
2019-04-14T01:34:26.375Z,66.25
2019-04-14T01:36:56.031Z,66.11
2019-04-14T01:39:24.610Z,66.37
2019-04-14T01:41:54.224Z,67.06
2019-04-14T01:44:24.229Z,66.26
2019-04-14T01:46:52.801Z,66.12
2019-04-14T01:49:22.487Z,65.98
2019-04-14T01:52:08.657Z,65.09
2019-04-14T01:54:45.290Z,65.69
2019-04-14T01:57:28.500Z,65.51
2019-04-14T01:59:58.910Z,64.73
2019-04-14T02:02:29.121Z,64.73
2019-04-14T02:04:58.034Z,65.24
2019-04-14T02:07:27.623Z,65.95
2019-04-14T02:09:57.569Z,66.04
2019-04-14T02:12:26.284Z,65.26
2019-04-14T02:14:56.186Z,65.90
2019-04-14T02:17:24.823Z,66.40
2019-04-14T02:19:54.538Z,68.76
2019-04-14T02:22:24.447Z,66.28
2019-04-14T02:24:53.041Z,65.94
2019-04-14T02:27:21.632Z,65.20
2019-04-14T02:29:51.547Z,65.21
2019-04-14T02:32:51.208Z,65.54
2019-04-14T02:35:20.893Z,65.20
2019-04-14T02:40:21.531Z,65.37
2019-04-14T02:42:46.870Z,64.45
2019-04-14T02:45:32.388Z,64.83
2019-04-14T02:50:18.298Z,64.66
2019-04-14T02:55:15.591Z,68.37
2019-04-14T02:57:52.117Z,65.86
2019-04-14T03:05:22.203Z,64.29
2019-04-14T03:07:51.576Z,64.35
2019-04-14T03:18:18.685Z,66.00
2019-04-14T03:20:31.869Z,66.32
2019-04-14T03:25:34.248Z,65.13
2019-04-14T03:28:38.744Z,65.19
2019-04-14T03:31:12.250Z,68.88
2019-04-14T03:33:52.493Z,67.38
2019-04-14T03:36:16.754Z,65.79
2019-04-14T03:38:45.220Z,65.10
2019-04-14T03:41:06.110Z,66.69
2019-04-14T03:46:04.750Z,66.18
2019-04-14T03:51:06.338Z,66.10
2019-04-14T03:53:26.279Z,65.39
2019-04-14T03:55:56.653Z,65.54
2019-04-14T03:58:20.577Z,66.73
2019-04-14T04:00:49.411Z,66.00
2019-04-14T04:03:18.185Z,65.50
2019-04-14T04:05:48.038Z,67.47
2019-04-14T04:08:17.933Z,67.93
2019-04-14T04:10:51.113Z,66.46
2019-04-14T04:13:19.747Z,65.44
2019-04-14T04:15:49.757Z,65.38
2019-04-14T04:18:19.980Z,65.54
2019-04-14T04:20:52.922Z,65.23
2019-04-14T04:23:36.087Z,65.81
2019-04-14T04:26:10.226Z,65.40
2019-04-14T04:28:40.708Z,65.48
2019-04-14T04:31:11.048Z,66.41
2019-04-14T04:33:54.360Z,65.62
2019-04-14T04:36:24.866Z,66.16
2019-04-14T04:39:03.938Z,65.86
2019-04-14T04:41:32.972Z,66.98
2019-04-14T04:44:02.910Z,68.38
2019-04-14T04:46:31.509Z,66.61
2019-04-14T04:49:09.887Z,65.98
2019-04-14T04:51:31.115Z,66.21
2019-04-14T04:53:59.856Z,65.65
2019-04-14T04:56:29.675Z,65.58
2019-04-14T04:58:58.926Z,66.36
2019-04-14T05:01:27.714Z,66.19
2019-04-14T05:03:56.301Z,66.10
2019-04-14T05:06:59.499Z,65.99
2019-04-14T05:09:36.703Z,65.65
2019-04-14T05:12:17.918Z,65.26
2019-04-14T05:14:48.085Z,65.30
2019-04-14T05:17:19.135Z,65.21
2019-04-14T05:19:47.810Z,65.79
2019-04-14T05:22:18.241Z,65.04
2019-04-14T05:24:46.774Z,65.08
2019-04-14T05:27:16.714Z,63.97
2019-04-14T05:29:45.415Z,64.26
2019-04-14T05:32:15.139Z,64.65
2019-04-14T05:34:43.811Z,64.58
2019-04-14T05:37:12.259Z,64.14
2019-04-14T05:39:41.875Z,65.08
2019-04-14T05:42:17.169Z,64.46
2019-04-14T05:44:40.913Z,64.16
2019-04-14T05:47:09.551Z,64.69
2019-04-14T05:49:44.463Z,65.43
2019-04-14T05:52:08.429Z,65.94
2019-04-14T05:54:38.206Z,66.41
2019-04-14T05:57:06.734Z,64.45
2019-04-14T05:59:35.401Z,64.39
2019-04-14T06:02:04.797Z,64.90
2019-04-14T06:04:33.458Z,63.82
2019-04-14T06:07:01.977Z,65.30
2019-04-14T06:09:30.542Z,64.67
2019-04-14T06:11:59.136Z,63.97
2019-04-14T06:14:27.738Z,63.70
2019-04-14T06:16:57.432Z,64.18
2019-04-14T06:19:36.484Z,64.01
2019-04-14T06:21:57.015Z,64.11
2019-04-14T06:24:25.647Z,64.01
2019-04-14T06:26:54.131Z,63.90
2019-04-14T06:29:22.685Z,64.24
2019-04-14T06:31:58.815Z,63.54
2019-04-14T06:34:41.163Z,63.04
2019-04-14T06:37:29.534Z,63.21
2019-04-14T06:39:59.742Z,63.56
2019-04-14T06:42:28.328Z,62.92
2019-04-14T06:44:57.129Z,63.08
2019-04-14T06:47:25.730Z,63.00
2019-04-14T06:49:54.910Z,62.50
2019-04-14T06:52:23.485Z,61.94
2019-04-14T06:54:52.081Z,61.60
2019-04-14T06:57:20.758Z,61.42
2019-04-14T06:59:49.255Z,61.60
2019-04-14T07:02:17.790Z,61.23
2019-04-14T07:04:46.346Z,60.65
2019-04-14T07:07:14.936Z,59.60
2019-04-14T07:09:43.558Z,58.80
2019-04-14T07:12:12.362Z,57.18
2019-04-14T07:14:40.852Z,56.99
2019-04-14T07:17:09.565Z,58.22
2019-04-14T07:19:38.164Z,59.69
2019-04-14T07:22:06.731Z,60.04
2019-04-14T07:24:35.418Z,59.64
2019-04-14T07:27:04.022Z,59.64
2019-04-14T07:29:34.241Z,59.16
2019-04-14T07:32:04.426Z,58.44
2019-04-14T07:34:40.967Z,57.93
2019-04-14T07:37:13.976Z,58.11
2019-04-14T07:39:56.084Z,57.52
2019-04-14T07:42:29.145Z,57.51
2019-04-14T07:44:59.297Z,56.26
2019-04-14T07:47:35.562Z,55.38
2019-04-14T07:50:14.424Z,54.29
2019-04-14T07:52:57.134Z,55.20
2019-04-14T07:55:27.282Z,54.92
2019-04-14T07:58:12.587Z,54.24
2019-04-14T08:00:51.891Z,53.75
2019-04-14T08:03:24.772Z,53.73
2019-04-14T08:05:53.392Z,54.62
2019-04-14T08:08:21.925Z,53.46
2019-04-14T08:10:50.578Z,53.36
2019-04-14T08:13:19.092Z,52.95
2019-04-14T08:15:47.734Z,53.41
2019-04-14T08:18:16.356Z,52.59
2019-04-14T08:20:44.965Z,51.65
2019-04-14T08:23:13.571Z,52.09
2019-04-14T08:25:42.216Z,51.20
2019-04-14T08:28:10.809Z,51.68
2019-04-14T08:30:39.433Z,51.46
2019-04-14T08:33:08.033Z,50.40
2019-04-14T08:35:36.609Z,50.94
2019-04-14T08:38:05.590Z,50.50
2019-04-14T08:40:34.252Z,50.11
2019-04-14T08:43:19.791Z,50.11
2019-04-14T08:45:52.528Z,49.72
2019-04-14T08:48:37.755Z,49.04
2019-04-14T08:51:10.928Z,50.86
2019-04-14T08:53:46.956Z,50.49
2019-04-14T08:56:23.112Z,49.44
2019-04-14T08:59:09.669Z,48.87
2019-04-14T09:01:56.354Z,49.25
2019-04-14T09:04:42.986Z,49.04
2019-04-14T09:07:13.156Z,48.33
2019-04-14T09:09:43.429Z,47.50
2019-04-14T09:12:15.641Z,47.96
2019-04-14T09:14:56.392Z,47.94
2019-04-14T09:17:14.445Z,47.60
2019-04-14T09:19:43.093Z,47.72
2019-04-14T09:22:11.631Z,47.27
2019-04-14T09:24:40.284Z,47.33
2019-04-14T09:27:09.886Z,48.76
2019-04-14T09:29:38.501Z,46.33
2019-04-14T09:32:08.983Z,45.00
2019-04-14T09:34:37.616Z,45.25
2019-04-14T09:37:06.236Z,45.25
2019-04-14T09:39:34.717Z,44.73
2019-04-14T09:42:03.385Z,44.05
2019-04-14T09:44:31.975Z,44.63
2019-04-14T09:47:00.565Z,43.48
2019-04-14T09:49:29.129Z,43.42
2019-04-14T09:51:57.819Z,43.46
2019-04-14T09:54:26.439Z,42.36
2019-04-14T09:56:55.092Z,41.53
2019-04-14T09:59:23.818Z,43.07
2019-04-14T10:01:52.483Z,42.53
2019-04-14T10:04:21.058Z,42.28
2019-04-14T10:06:49.692Z,41.92
2019-04-14T10:09:18.414Z,40.95
2019-04-14T10:11:51.177Z,41.30
2019-04-14T10:14:18.605Z,41.49
2019-04-14T10:16:47.187Z,41.35
2019-04-14T10:19:15.993Z,41.21
2019-04-14T10:21:44.606Z,41.49
2019-04-14T10:24:13.238Z,40.85
2019-04-14T10:26:41.845Z,40.91
2019-04-14T10:29:10.514Z,38.83
2019-04-14T10:31:39.234Z,39.75
2019-04-14T10:34:09.899Z,39.02
2019-04-14T10:36:38.175Z,39.84
2019-04-14T10:39:07.690Z,38.65
2019-04-14T10:41:36.341Z,39.22
2019-04-14T10:44:05.051Z,39.65
2019-04-14T10:46:33.575Z,38.22
2019-04-14T10:49:02.156Z,38.97
2019-04-14T10:51:33.924Z,38.51
2019-04-14T10:54:01.120Z,38.34
2019-04-14T10:56:29.656Z,37.55
2019-04-14T10:58:59.656Z,38.30
2019-04-14T11:01:28.212Z,38.12
2019-04-14T11:03:56.793Z,38.20
2019-04-14T11:06:30.013Z,38.27
2019-04-14T11:08:58.659Z,38.66
2019-04-14T11:11:27.368Z,37.77
2019-04-14T11:13:55.955Z,37.50
2019-04-14T11:16:24.558Z,36.49
2019-04-14T11:18:53.243Z,36.70
2019-04-14T11:21:21.950Z,37.93
2019-04-14T11:23:50.564Z,37.55
2019-04-14T11:26:19.185Z,36.74
2019-04-14T11:28:47.684Z,36.56
2019-04-14T11:31:17.915Z,37.42
2019-04-14T11:34:04.761Z,36.76
2019-04-14T11:36:40.947Z,35.65
2019-04-14T11:39:11.059Z,35.92
2019-04-14T11:41:39.617Z,37.17
2019-04-14T11:44:08.341Z,36.15
2019-04-14T11:46:36.950Z,36.59
2019-04-14T11:49:05.693Z,36.20
2019-04-14T11:51:34.303Z,37.36
2019-04-14T11:54:02.991Z,36.78
2019-04-14T11:56:31.591Z,36.32
2019-04-14T11:59:00.432Z,35.41
2019-04-14T12:01:47.007Z,36.20
2019-04-14T12:04:29.506Z,35.86
2019-04-14T12:07:14.778Z,36.15
2019-04-14T12:09:53.733Z,35.72
2019-04-14T12:12:22.410Z,36.50
2019-04-14T12:14:51.005Z,35.83
2019-04-14T12:17:19.640Z,34.66
2019-04-14T12:19:48.251Z,36.32
2019-04-14T12:22:16.894Z,35.00
2019-04-14T12:24:45.399Z,36.46
2019-04-14T12:27:14.600Z,34.76
2019-04-14T12:29:43.365Z,34.97
2019-04-14T12:32:12.844Z,34.21
2019-04-14T12:34:41.427Z,33.48
2019-04-14T12:37:10.061Z,34.70
2019-04-14T12:39:38.510Z,34.43
2019-04-14T12:42:20.793Z,34.82
2019-04-14T12:45:09.198Z,34.92
2019-04-14T12:47:45.378Z,34.74
2019-04-14T12:50:21.554Z,34.23
2019-04-14T12:52:50.262Z,34.89
2019-04-14T12:55:18.803Z,34.10
2019-04-14T12:57:49.302Z,35.26
2019-04-14T13:00:22.754Z,35.01
2019-04-14T13:02:53.073Z,33.69
2019-04-14T13:05:21.664Z,34.41
2019-04-14T13:07:50.304Z,33.83
2019-04-14T13:10:19.952Z,34.24
2019-04-14T13:12:48.564Z,34.40
2019-04-14T13:15:17.148Z,35.32
2019-04-14T13:17:45.704Z,35.21
2019-04-14T13:20:14.368Z,34.55
2019-04-14T13:22:42.987Z,35.36
2019-04-14T13:25:11.843Z,33.90
2019-04-14T13:27:40.485Z,34.59
2019-04-14T13:30:11.845Z,35.17
2019-04-14T13:32:40.350Z,35.79
2019-04-14T13:35:09.081Z,35.51
2019-04-14T13:37:37.675Z,35.58
2019-04-14T13:40:06.765Z,34.76
2019-04-14T13:42:35.386Z,34.92
2019-04-14T13:45:05.191Z,34.49
2019-04-14T13:47:33.817Z,38.50
2019-04-14T13:50:02.647Z,35.67
2019-04-14T13:52:31.307Z,35.08
2019-04-14T13:54:59.879Z,34.40
2019-04-14T13:57:29.547Z,34.59
2019-04-14T13:59:58.015Z,34.51
2019-04-14T14:02:26.647Z,34.96
2019-04-14T14:04:55.274Z,34.98
2019-04-14T14:07:23.952Z,35.71
2019-04-14T14:09:52.525Z,35.07
2019-04-14T14:12:41.207Z,35.81
2019-04-14T14:15:24.942Z,35.73
2019-04-14T14:18:11.005Z,34.50
2019-04-14T14:20:44.247Z,35.28
2019-04-14T14:23:17.201Z,37.27
2019-04-14T14:25:50.205Z,35.45
2019-04-14T14:28:18.881Z,34.36
2019-04-14T14:30:47.471Z,35.10
2019-04-14T14:33:15.926Z,35.22
2019-04-14T14:35:44.517Z,35.28
2019-04-14T14:38:13.169Z,35.54
2019-04-14T14:40:41.776Z,35.46
2019-04-14T14:43:10.457Z,34.92
2019-04-14T14:45:57.969Z,36.07
2019-04-14T14:48:28.140Z,35.36
2019-04-14T14:51:04.178Z,36.71
2019-04-14T14:53:32.737Z,36.46
2019-04-14T14:56:01.415Z,36.54
2019-04-14T14:58:29.944Z,36.25
2019-04-14T15:00:59.301Z,35.88
2019-04-14T15:03:27.968Z,35.46
2019-04-14T15:05:57.074Z,35.99
2019-04-14T15:08:25.742Z,36.92
2019-04-14T15:10:54.301Z,36.72
2019-04-14T15:13:23.127Z,37.08
2019-04-14T15:15:51.756Z,36.79
2019-04-14T15:18:20.384Z,37.16
2019-04-14T15:20:49.025Z,37.72
2019-04-14T15:23:24.963Z,38.41
2019-04-14T15:25:47.959Z,38.41
2019-04-14T15:28:16.592Z,38.06
2019-04-14T15:30:45.254Z,38.72
2019-04-14T15:33:13.902Z,37.92
2019-04-14T15:35:42.553Z,37.92
2019-04-14T15:38:11.112Z,36.24
2019-04-14T15:40:39.709Z,37.86
2019-04-14T15:43:08.249Z,37.00
2019-04-14T15:45:36.953Z,37.27
2019-04-14T15:48:05.946Z,38.20
2019-04-14T15:50:34.622Z,38.39
2019-04-14T15:53:03.222Z,38.66
2019-04-14T15:55:31.845Z,38.91
2019-04-14T15:58:02.018Z,38.38
2019-04-14T16:00:32.208Z,38.44
2019-04-14T16:03:02.462Z,38.04
2019-04-14T16:05:49.117Z,38.55
2019-04-14T16:08:28.598Z,39.23
2019-04-14T16:11:01.790Z,39.24
2019-04-14T16:13:47.030Z,39.75
2019-04-14T16:16:23.267Z,40.25
2019-04-14T16:19:02.558Z,40.77
2019-04-14T16:21:31.177Z,39.69
2019-04-14T16:23:59.873Z,40.71
2019-04-14T16:26:48.191Z,40.71
2019-04-14T16:29:22.257Z,40.94
2019-04-14T16:31:55.299Z,41.55
2019-04-14T16:34:28.454Z,41.18
2019-04-14T16:36:57.691Z,41.22
2019-04-14T16:39:26.293Z,40.94
2019-04-14T16:41:54.811Z,41.21
2019-04-14T16:44:23.415Z,40.24
2019-04-14T16:46:52.049Z,40.45
2019-04-14T16:49:20.690Z,39.70
2019-04-14T16:51:59.864Z,40.34
2019-04-14T16:54:30.158Z,40.23
2019-04-14T16:57:16.757Z,41.14
2019-04-14T16:59:45.421Z,41.29
2019-04-14T17:02:15.103Z,41.65
2019-04-14T17:04:43.668Z,42.83
2019-04-14T17:07:12.338Z,42.38
2019-04-14T17:09:41.041Z,42.46
2019-04-14T17:12:09.715Z,42.96
2019-04-14T17:14:45.666Z,43.66
2019-04-14T17:17:15.920Z,43.41
2019-04-14T17:19:46.203Z,42.99
2019-04-14T17:22:19.326Z,44.03
2019-04-14T17:24:49.599Z,44.33
2019-04-14T17:27:19.839Z,44.65
2019-04-14T17:29:50.068Z,44.78
2019-04-14T17:32:20.264Z,44.80
2019-04-14T17:34:50.533Z,45.16
2019-04-14T17:37:23.508Z,45.35
2019-04-14T17:39:53.767Z,45.80
2019-04-14T17:42:27.136Z,45.53
2019-04-14T17:45:09.381Z,45.05
2019-04-14T17:47:39.612Z,44.97
2019-04-14T17:50:26.448Z,45.65
2019-04-14T17:52:59.484Z,45.83
2019-04-14T17:55:29.880Z,45.53
2019-04-14T17:58:18.755Z,45.28
2019-04-14T18:00:58.239Z,46.29
2019-04-14T18:03:28.452Z,46.02
2019-04-14T18:05:58.704Z,46.25
2019-04-14T18:08:28.975Z,46.14
2019-04-14T18:11:04.997Z,46.51
2019-04-14T18:13:35.286Z,49.68
2019-04-14T18:16:08.352Z,47.19
2019-04-14T18:18:38.613Z,46.53
2019-04-14T18:21:08.852Z,46.52
2019-04-14T18:23:42.862Z,46.51
2019-04-14T18:26:11.475Z,46.70
2019-04-14T18:28:44.476Z,46.77
2019-04-14T18:31:20.682Z,46.72
2019-04-14T18:34:05.843Z,46.36
2019-04-14T18:36:36.217Z,47.36
2019-04-14T18:39:27.126Z,47.13
2019-04-14T18:42:09.058Z,47.55
2019-04-14T18:44:48.302Z,47.80
2019-04-14T18:47:22.263Z,48.05
2019-04-14T18:49:52.533Z,49.84
2019-04-14T18:52:23.581Z,49.14
2019-04-14T18:54:54.899Z,48.41
2019-04-14T18:57:25.456Z,48.33
2019-04-14T18:59:55.844Z,48.56
2019-04-14T19:02:24.699Z,49.19
2019-04-14T19:04:53.590Z,48.73
2019-04-14T19:07:22.389Z,48.57
2019-04-14T19:09:51.193Z,49.31
2019-04-14T19:12:21.717Z,48.67
2019-04-14T19:14:52.122Z,49.46
2019-04-14T19:17:28.196Z,49.15
2019-04-14T19:20:01.865Z,49.34
2019-04-14T19:22:29.059Z,49.28
2019-04-14T19:25:07.345Z,49.91
2019-04-14T19:27:27.862Z,49.21
2019-04-14T19:29:56.792Z,49.66
2019-04-14T19:32:26.147Z,50.42
2019-04-14T19:34:54.693Z,50.09
2019-04-14T19:37:23.232Z,50.09
2019-04-14T19:39:51.846Z,50.53
2019-04-14T19:42:20.493Z,49.79
2019-04-14T19:44:48.962Z,50.25
2019-04-14T19:47:17.494Z,49.91
2019-04-14T19:49:45.981Z,49.93
2019-04-14T19:52:14.629Z,49.84
2019-04-14T19:54:43.285Z,50.42
2019-04-14T19:57:11.877Z,50.68
2019-04-14T19:59:40.572Z,52.87
2019-04-14T20:02:09.212Z,50.61
2019-04-14T20:04:37.894Z,51.77
2019-04-14T20:07:06.513Z,51.08
2019-04-14T20:09:35.166Z,51.40
2019-04-14T20:12:03.825Z,51.70
2019-04-14T20:14:33.210Z,51.95
2019-04-14T20:17:18.514Z,53.12
2019-04-14T20:20:05.175Z,53.27
2019-04-14T20:22:52.569Z,53.25
2019-04-14T20:25:33.918Z,53.95
2019-04-14T20:28:06.949Z,53.42
2019-04-14T20:30:37.312Z,53.31
2019-04-14T20:33:05.941Z,53.59
2019-04-14T20:35:35.000Z,54.09
2019-04-14T20:38:03.757Z,53.36
2019-04-14T20:40:32.306Z,53.49
2019-04-14T20:43:00.941Z,53.09
2019-04-14T20:45:29.557Z,54.70
2019-04-14T20:47:58.214Z,54.49
2019-04-14T20:50:26.777Z,54.82
2019-04-14T20:52:55.433Z,55.45
2019-04-14T20:55:24.033Z,55.03
2019-04-14T20:57:52.668Z,55.03
2019-04-14T21:00:21.982Z,54.97
2019-04-14T21:02:52.342Z,55.13
2019-04-14T21:05:37.962Z,56.31
2019-04-14T21:08:17.240Z,56.24
2019-04-14T21:10:47.321Z,59.29
2019-04-14T21:13:33.855Z,57.46
2019-04-14T21:16:12.651Z,57.31
2019-04-14T21:18:36.080Z,57.23
2019-04-14T21:21:15.329Z,57.65
2019-04-14T21:23:48.725Z,57.71
2019-04-14T21:26:18.994Z,57.32
2019-04-14T21:28:49.193Z,57.50
2019-04-14T21:31:25.514Z,58.16
2019-04-14T21:33:55.658Z,58.55
2019-04-14T21:36:25.903Z,57.89
2019-04-14T21:38:58.864Z,57.92
2019-04-14T21:41:31.998Z,58.45
2019-04-14T21:44:00.639Z,61.60
2019-04-14T21:46:29.345Z,60.67
2019-04-14T21:48:57.854Z,59.05
2019-04-14T21:51:28.049Z,59.03
2019-04-14T21:53:56.729Z,59.76
2019-04-14T21:56:26.969Z,59.53
2019-04-14T21:59:00.151Z,59.82
2019-04-14T22:01:53.895Z,60.41
2019-04-14T22:04:42.412Z,60.37
2019-04-14T22:07:12.775Z,59.83
2019-04-14T22:09:41.698Z,59.35
2019-04-14T22:12:10.523Z,60.36
2019-04-14T22:14:38.962Z,59.98
2019-04-14T22:17:07.663Z,59.75
2019-04-14T22:19:36.269Z,60.76
2019-04-14T22:22:04.872Z,61.66
2019-04-14T22:24:33.442Z,60.45
2019-04-14T22:27:01.928Z,59.03
2019-04-14T22:29:30.544Z,59.53
2019-04-14T22:32:01.525Z,59.77
2019-04-14T22:34:29.806Z,59.70
2019-04-14T22:36:58.447Z,61.68
2019-04-14T22:39:27.012Z,61.11
2019-04-14T22:41:55.529Z,60.91
2019-04-14T22:44:24.130Z,60.11
2019-04-14T22:46:52.770Z,59.44
2019-04-14T22:49:21.310Z,59.15
2019-04-14T22:51:49.891Z,60.19
2019-04-14T22:54:18.451Z,59.74
2019-04-14T22:56:47.053Z,61.46
2019-04-14T22:59:15.545Z,59.71
2019-04-14T23:01:45.735Z,59.27
2019-04-14T23:04:22.143Z,59.14
2019-04-14T23:06:58.413Z,58.90
2019-04-14T23:09:31.351Z,57.78
2019-04-14T23:12:16.860Z,58.77
2019-04-14T23:15:05.296Z,60.08
2019-04-14T23:17:35.463Z,59.58
2019-04-14T23:20:24.786Z,59.69
2019-04-14T23:22:57.715Z,59.37
2019-04-14T23:25:26.354Z,59.76
2019-04-14T23:27:55.110Z,60.25
2019-04-14T23:30:23.945Z,63.03
2019-04-14T23:32:52.536Z,62.68
2019-04-14T23:35:21.186Z,60.75
2019-04-14T23:37:49.708Z,60.67
2019-04-14T23:40:18.323Z,60.27
2019-04-14T23:42:46.906Z,59.18
2019-04-14T23:45:15.526Z,60.65
2019-04-14T23:47:44.046Z,60.39
2019-04-14T23:50:13.795Z,60.01
2019-04-14T23:52:42.394Z,59.03
2019-04-14T23:55:11.060Z,59.54
2019-04-14T23:57:39.579Z,59.30
